Time;durP1;ratioP1;P1;durP2;ratioP2;P2;SDS_P1;SDS_P2;PMS_P1;PMS_P2;Temp;Humidity;BMP_temperature;BMP_pressure;BME280_temperature;BME280_humidity;BME280_pressure;Samples;Min_cycle;Max_cycle;Signal;HPM_P1;HPM_P2
2023/08/26 00:01:52;;;;;;;8.52;5.05;;;21.10;99.90;;;;;;4980246;28;20042;-74
2023/08/26 00:04:20;;;;;;;7.90;5.00;;;21.10;99.90;;;;;;4983994;28;20034;-75
2023/08/26 00:06:48;;;;;;;8.73;5.45;;;21.00;99.90;;;;;;4983067;28;20046;-75
2023/08/26 00:09:13;;;;;;;9.57;4.50;;;21.10;99.90;;;;;;4984434;28;20091;-74
2023/08/26 00:11:40;;;;;;;7.68;5.10;;;21.10;99.90;;;;;;4987489;28;20050;-75
2023/08/26 00:14:06;;;;;;;8.15;4.78;;;20.90;99.90;;;;;;4987677;28;20039;-74
2023/08/26 00:16:32;;;;;;;7.57;4.70;;;20.80;99.90;;;;;;4970222;28;20108;-75
2023/08/26 00:18:59;;;;;;;6.93;4.65;;;20.70;99.90;;;;;;4987634;28;20055;-77
2023/08/26 00:21:28;;;;;;;6.57;4.75;;;20.70;99.90;;;;;;4987610;28;20063;-74
2023/08/26 00:23:54;;;;;;;9.73;4.88;;;20.60;99.90;;;;;;4960374;29;20098;-76
2023/08/26 00:26:21;;;;;;;8.77;5.22;;;20.60;99.90;;;;;;4968201;29;20088;-74
2023/08/26 00:28:47;;;;;;;9.32;4.75;;;20.60;99.90;;;;;;4982705;28;20205;-76
2023/08/26 16:42:46;;;;;;;4.15;1.85;;;22.10;96.70;;;;;;5412521;23;20094;-76
2023/08/26 16:45:13;;;;;;;6.55;2.58;;;22.00;96.60;;;;;;4947520;29;20055;-76
2023/08/26 16:47:39;;;;;;;5.47;2.25;;;21.80;96.30;;;;;;4961458;29;20031;-75
2023/08/26 16:50:05;;;;;;;7.47;2.30;;;21.60;96.80;;;;;;4964846;29;20062;-75
2023/08/26 16:52:34;;;;;;;4.10;2.33;;;21.40;97.60;;;;;;4964861;28;20317;-76
2023/08/26 16:55:00;;;;;;;5.35;2.60;;;21.20;98.50;;;;;;4951135;29;20336;-76
2023/08/26 16:57:25;;;;;;;5.20;2.88;;;21.10;98.90;;;;;;4967757;28;20078;-75
2023/08/26 16:59:52;;;;;;;5.30;2.70;;;20.80;99.70;;;;;;4953301;28;20042;-77
2023/08/26 17:02:19;;;;;;;5.25;2.13;;;20.70;99.90;;;;;;4982787;28;20213;-77
2023/08/26 17:04:45;;;;;;;4.53;2.40;;;20.60;99.90;;;;;;4966164;29;20098;-76
2023/08/26 17:07:15;;;;;;;4.75;2.35;;;20.40;99.90;;;;;;4950963;29;20297;-77
2023/08/26 17:09:49;;;;;;;8.43;2.42;;;20.10;99.90;;;;;;4950865;29;20217;-75
2023/08/26 17:12:15;;;;;;;4.30;2.22;;;20.10;99.90;;;;;;4966669;29;20031;-77
2023/08/26 17:14:44;;;;;;;7.00;2.17;;;20.00;99.90;;;;;;4950591;29;20027;-76
2023/08/26 17:17:10;;;;;;;5.17;2.07;;;19.90;99.90;;;;;;4950726;29;20055;-77
2023/08/26 17:19:35;;;;;;;7.07;2.42;;;19.80;99.90;;;;;;4966747;28;20435;-78
2023/08/26 17:22:01;;;;;;;5.07;2.22;;;19.70;99.90;;;;;;4950379;29;20046;-77
2023/08/26 17:24:27;;;;;;;5.38;2.00;;;19.70;99.90;;;;;;4950509;29;20312;-77
2023/08/26 17:26:53;;;;;;;4.72;2.25;;;19.70;99.90;;;;;;4950054;29;20042;-76
2023/08/26 17:29:19;;;;;;;4.75;2.25;;;19.70;99.90;;;;;;4950479;29;20209;-76
2023/08/26 17:31:45;;;;;;;5.65;2.47;;;19.80;99.90;;;;;;4949400;29;20031;-77
2023/08/26 17:34:11;;;;;;;3.75;2.13;;;19.90;99.90;;;;;;4950066;29;20222;-76
2023/08/26 17:36:37;;;;;;;3.78;2.22;;;19.90;99.90;;;;;;4949770;29;20027;-75
2023/08/26 17:39:02;;;;;;;6.93;3.00;;;19.80;99.90;;;;;;4963046;29;20375;-79
2023/08/26 17:41:28;;;;;;;5.10;2.63;;;19.70;99.90;;;;;;4946589;29;20126;-77
2023/08/26 17:43:54;;;;;;;4.18;2.60;;;19.80;99.90;;;;;;4945999;29;20063;-77
2023/08/26 17:46:23;;;;;;;6.32;2.88;;;19.90;99.90;;;;;;4947047;29;20368;-76
2023/08/26 17:48:49;;;;;;;7.25;2.50;;;19.90;99.90;;;;;;4947320;29;20036;-74
2023/08/26 17:51:16;;;;;;;7.32;2.83;;;19.80;99.90;;;;;;4943702;29;20317;-75
2023/08/26 17:53:41;;;;;;;5.35;2.50;;;19.70;99.90;;;;;;4928169;29;20044;-78
2023/08/26 17:56:07;;;;;;;4.95;2.60;;;19.70;99.90;;;;;;4927384;29;20075;-77
2023/08/26 17:58:33;;;;;;;7.25;3.05;;;19.70;99.90;;;;;;4939879;29;20344;-77
2023/08/26 18:00:59;;;;;;;5.18;2.67;;;19.60;99.90;;;;;;4946754;29;20043;-76
2023/08/26 18:03:25;;;;;;;5.25;2.72;;;19.60;99.90;;;;;;4930367;29;20031;-77
2023/08/26 18:05:51;;;;;;;4.88;2.83;;;19.50;99.90;;;;;;4947077;29;20028;-78
2023/08/26 18:08:22;;;;;;;5.90;3.17;;;19.40;99.90;;;;;;4946012;29;20050;-75
2023/08/26 18:10:48;;;;;;;5.05;3.15;;;19.30;99.90;;;;;;4961881;29;20209;-76
2023/08/26 18:13:15;;;;;;;4.55;2.70;;;19.20;99.90;;;;;;4947412;29;20099;-77
2023/08/26 18:15:40;;;;;;;5.68;2.83;;;19.20;99.90;;;;;;4946091;29;20364;-79
2023/08/26 18:18:06;;;;;;;5.00;2.65;;;19.20;99.90;;;;;;4947179;29;20058;-75
2023/08/26 18:20:32;;;;;;;6.78;2.80;;;19.20;99.90;;;;;;4947139;29;20054;-77
2023/08/26 18:22:58;;;;;;;6.15;3.22;;;19.10;99.90;;;;;;4946787;29;20036;-77
2023/08/26 18:25:24;;;;;;;6.32;3.00;;;19.10;99.90;;;;;;4946022;29;20051;-78
2023/08/26 18:27:50;;;;;;;6.20;3.70;;;19.10;99.90;;;;;;4946190;29;20310;-77
2023/08/26 18:30:17;;;;;;;5.22;3.20;;;19.00;99.90;;;;;;4946366;29;20054;-77
2023/08/26 18:32:43;;;;;;;7.60;3.35;;;18.90;99.90;;;;;;4951679;29;20067;-77
2023/08/26 18:35:09;;;;;;;6.85;3.30;;;18.90;99.90;;;;;;4952210;29;20028;-76
2023/08/26 18:37:35;;;;;;;5.63;2.63;;;18.80;99.90;;;;;;4955022;29;20031;-77
2023/08/26 18:40:01;;;;;;;8.13;2.83;;;18.80;99.90;;;;;;4934037;29;20035;-78
2023/08/26 18:42:27;;;;;;;6.50;3.30;;;18.70;99.90;;;;;;4945728;29;20055;-79
2023/08/26 18:44:53;;;;;;;6.20;2.90;;;18.80;99.90;;;;;;4946642;29;20023;-77
2023/08/26 18:47:19;;;;;;;4.13;2.90;;;18.70;99.90;;;;;;4946769;29;20216;-77
2023/08/26 18:49:45;;;;;;;6.82;3.00;;;18.70;99.90;;;;;;4945858;29;20019;-77
2023/08/26 18:52:11;;;;;;;4.40;2.70;;;18.70;99.90;;;;;;4945211;29;20019;-79
2023/08/26 18:54:40;;;;;;;7.93;3.25;;;18.70;99.90;;;;;;4945442;29;20027;-79
2023/08/26 18:57:06;;;;;;;7.45;3.17;;;18.70;99.90;;;;;;4946252;29;20098;-77
2023/08/26 18:59:31;;;;;;;4.70;2.83;;;18.70;99.90;;;;;;4946083;29;20099;-78
2023/08/26 19:01:57;;;;;;;5.82;3.00;;;18.60;99.90;;;;;;4960512;29;20042;-77
2023/08/26 19:04:23;;;;;;;7.30;3.28;;;18.60;99.90;;;;;;4944944;29;20038;-76
2023/08/26 19:06:49;;;;;;;6.65;3.40;;;18.60;99.90;;;;;;4945708;29;20228;-76
2023/08/26 19:09:16;;;;;;;12.30;4.30;;;18.60;99.90;;;;;;4929593;29;20183;-77
2023/08/26 19:11:43;;;;;;;6.32;3.28;;;18.60;99.90;;;;;;4944642;29;20035;-77
2023/08/26 19:14:10;;;;;;;7.40;3.25;;;18.60;99.90;;;;;;4944855;29;20019;-77
2023/08/26 19:16:36;;;;;;;9.43;4.30;;;18.60;99.90;;;;;;4945340;29;20101;-75
2023/08/26 19:19:05;;;;;;;6.05;2.88;;;18.50;99.90;;;;;;4933036;29;20310;-77
2023/08/26 19:21:31;;;;;;;7.97;3.42;;;18.50;99.90;;;;;;4941746;29;20206;-79
2023/08/26 19:23:57;;;;;;;5.25;2.92;;;18.50;99.90;;;;;;4941972;29;20039;-78
2023/08/26 19:26:24;;;;;;;5.65;3.13;;;18.40;99.90;;;;;;4925918;29;20079;-78
2023/08/26 19:28:52;;;;;;;6.25;3.17;;;18.40;99.90;;;;;;4925621;29;20095;-79
2023/08/26 19:31:19;;;;;;;7.55;3.53;;;18.30;99.90;;;;;;4926077;29;20394;-76
2023/08/26 19:33:46;;;;;;;4.53;3.45;;;18.30;99.90;;;;;;4925548;29;20111;-77
2023/08/26 19:36:12;;;;;;;6.57;4.32;;;18.30;99.90;;;;;;4926891;29;20036;-79
2023/08/26 19:38:38;;;;;;;5.75;2.88;;;18.20;99.90;;;;;;4925904;29;20032;-77
2023/08/26 19:41:04;;;;;;;6.70;3.03;;;18.30;99.90;;;;;;4926081;29;20373;-78
2023/08/26 19:43:31;;;;;;;7.43;3.35;;;18.30;99.90;;;;;;4941545;29;20361;-78
2023/08/26 19:45:57;;;;;;;4.25;3.08;;;18.20;99.90;;;;;;4925649;29;20031;-77
2023/08/26 19:48:23;;;;;;;5.32;3.22;;;18.20;99.90;;;;;;4926839;29;20027;-77
2023/08/26 19:50:49;;;;;;;6.30;2.80;;;18.30;99.90;;;;;;4938952;29;20036;-76
2023/08/26 19:53:16;;;;;;;7.53;2.83;;;18.30;99.90;;;;;;4945536;29;20047;-77
2023/08/26 19:55:42;;;;;;;6.72;2.97;;;18.20;99.90;;;;;;4959997;29;20094;-77
2023/08/26 19:58:09;;;;;;;7.22;3.67;;;18.30;99.90;;;;;;4945374;29;20087;-76
2023/08/26 20:00:35;;;;;;;6.10;3.90;;;18.30;99.90;;;;;;4945629;29;20348;-77
2023/08/26 20:03:01;;;;;;;6.05;3.83;;;18.30;99.90;;;;;;4959944;29;20040;-78
2023/08/26 20:05:27;;;;;;;10.23;3.78;;;18.30;99.90;;;;;;4945380;29;20136;-77
2023/08/26 20:07:52;;;;;;;5.97;3.88;;;18.20;99.90;;;;;;4943788;29;20079;-76
2023/08/26 20:10:18;;;;;;;7.65;4.05;;;18.20;99.90;;;;;;4960642;29;20028;-77
2023/08/26 20:12:47;;;;;;;7.15;4.68;;;18.10;99.90;;;;;;4945170;29;20091;-77
2023/08/26 20:15:14;;;;;;;7.93;4.88;;;18.00;99.90;;;;;;4945730;29;20040;-79
2023/08/26 20:17:41;;;;;;;9.88;5.60;;;17.90;99.90;;;;;;4945915;29;20060;-78
2023/08/26 20:20:08;;;;;;;8.20;4.75;;;17.90;99.90;;;;;;4928720;29;20055;-76
2023/08/26 20:22:35;;;;;;;9.43;5.57;;;17.80;99.90;;;;;;4929644;29;20028;-78
2023/08/26 20:25:03;;;;;;;8.75;5.32;;;17.70;99.90;;;;;;4941612;29;20051;-79
2023/08/26 20:27:29;;;;;;;11.40;6.03;;;17.70;99.90;;;;;;4933128;29;20066;-78
2023/08/26 20:29:55;;;;;;;14.05;6.82;;;17.70;99.90;;;;;;4932093;29;20031;-77
2023/08/26 20:32:21;;;;;;;14.25;7.05;;;17.70;99.90;;;;;;4932751;29;20035;-76
2023/08/26 20:34:46;;;;;;;9.80;7.47;;;17.60;99.90;;;;;;4932068;29;20032;-78
2023/08/26 20:37:12;;;;;;;10.18;7.45;;;17.50;99.90;;;;;;4932872;29;20028;-78
2023/08/26 20:39:38;;;;;;;10.75;7.60;;;17.50;99.90;;;;;;4927204;29;20353;-76
2023/08/26 20:42:05;;;;;;;10.57;7.10;;;17.40;99.90;;;;;;4931898;29;20066;-78
2023/08/26 20:44:31;;;;;;;12.25;8.10;;;17.40;99.90;;;;;;4948391;29;20302;-77
2023/08/26 20:46:58;;;;;;;10.15;8.13;;;17.40;99.90;;;;;;4932546;29;20031;-78
2023/08/26 20:49:24;;;;;;;12.70;8.65;;;17.40;99.90;;;;;;4932335;29;20090;-78
2023/08/26 20:51:50;;;;;;;15.63;8.45;;;17.30;99.90;;;;;;4931765;29;20043;-80
2023/08/26 20:54:15;;;;;;;11.63;9.07;;;17.30;99.90;;;;;;4948817;29;20047;-77
2023/08/26 20:56:41;;;;;;;13.43;8.52;;;17.30;99.90;;;;;;4948466;29;20031;-80
2023/08/26 20:59:07;;;;;;;13.70;9.43;;;17.20;99.90;;;;;;4947981;29;20071;-75
2023/08/26 21:01:33;;;;;;;12.30;8.85;;;17.20;99.90;;;;;;4946735;29;20229;-77
2023/08/26 21:04:00;;;;;;;13.20;10.52;;;17.10;99.90;;;;;;4944283;29;20331;-78
2023/08/26 21:06:25;;;;;;;14.10;9.63;;;17.20;99.90;;;;;;4947738;29;20043;-79
2023/08/26 21:08:52;;;;;;;16.17;9.93;;;17.20;99.90;;;;;;4947961;29;20034;-77
2023/08/26 21:11:18;;;;;;;20.50;11.15;;;17.20;99.90;;;;;;4948727;29;20047;-77
2023/08/26 21:13:44;;;;;;;12.93;9.07;;;17.20;99.90;;;;;;4948758;29;20036;-77
2023/08/26 21:16:10;;;;;;;13.38;9.45;;;17.20;99.90;;;;;;4947939;29;20035;-79
2023/08/26 21:18:37;;;;;;;15.05;9.15;;;17.20;99.90;;;;;;4922847;29;20114;-79
2023/08/26 21:21:04;;;;;;;14.15;9.50;;;17.20;99.90;;;;;;4946818;29;20051;-77
2023/08/26 21:23:30;;;;;;;16.52;9.35;;;17.20;99.90;;;;;;4947229;29;20217;-77
2023/08/26 21:25:56;;;;;;;13.02;9.32;;;17.20;99.90;;;;;;4946684;29;20039;-76
2023/08/26 21:28:26;;;;;;;13.95;10.10;;;17.30;99.90;;;;;;4947678;29;20031;-77
2023/08/26 21:30:52;;;;;;;12.52;9.90;;;17.30;99.90;;;;;;4946662;29;20199;-77
2023/08/26 21:33:18;;;;;;;13.65;9.52;;;17.30;99.90;;;;;;4948358;29;20344;-78
2023/08/26 21:35:44;;;;;;;15.60;12.02;;;17.30;99.90;;;;;;4947201;29;20035;-78
2023/08/26 21:38:12;;;;;;;16.25;11.85;;;17.30;99.90;;;;;;4945925;29;20047;-76
2023/08/26 21:40:38;;;;;;;17.48;12.52;;;17.30;99.90;;;;;;4946634;29;20221;-77
2023/08/26 21:43:04;;;;;;;19.08;12.45;;;17.30;99.90;;;;;;4946221;29;20359;-78
2023/08/26 21:45:29;;;;;;;16.48;13.02;;;17.30;99.90;;;;;;4947097;29;20110;-75
2023/08/26 21:47:55;;;;;;;16.70;12.40;;;17.30;99.90;;;;;;4946667;29;20031;-77
2023/08/26 21:50:21;;;;;;;19.73;14.38;;;17.30;99.90;;;;;;4947138;29;20313;-78
2023/08/26 21:52:47;;;;;;;19.83;15.50;;;17.30;99.90;;;;;;4947688;29;20325;-76
2023/08/26 21:55:14;;;;;;;34.42;24.88;;;17.30;99.90;;;;;;4946469;29;20042;-77
2023/08/26 21:58:19;;;;;;;41.42;29.58;;;17.30;99.90;;;;;;4947526;29;20028;-75
2023/08/26 22:00:47;;;;;;;30.45;21.73;;;17.30;99.90;;;;;;4888146;29;20033;-76
2023/08/26 22:03:13;;;;;;;25.90;18.35;;;17.30;99.90;;;;;;4888558;29;20040;-77
2023/08/26 22:05:39;;;;;;;26.42;18.65;;;17.30;99.90;;;;;;4873684;29;20165;-78
2023/08/26 22:08:06;;;;;;;26.83;17.70;;;17.30;99.90;;;;;;4888262;29;20092;-76
2023/08/26 22:10:36;;;;;;;26.90;18.50;;;17.30;99.90;;;;;;4888970;29;20071;-76
2023/08/26 22:13:03;;;;;;;24.33;16.73;;;17.20;99.90;;;;;;4888747;29;20040;-80
2023/08/26 22:15:29;;;;;;;22.10;15.73;;;17.20;99.90;;;;;;4873477;29;20036;-77
2023/08/26 22:17:55;;;;;;;22.50;15.88;;;17.20;99.90;;;;;;4888282;29;20052;-77
2023/08/26 22:20:21;;;;;;;22.40;16.55;;;17.20;99.90;;;;;;4888845;29;20353;-77
2023/08/26 22:22:48;;;;;;;23.85;17.27;;;17.20;99.90;;;;;;4873275;29;20278;-76
2023/08/26 22:25:14;;;;;;;23.00;15.35;;;17.20;99.90;;;;;;4872587;29;20204;-78
2023/08/26 22:27:41;;;;;;;22.35;16.05;;;17.20;99.90;;;;;;4888744;29;20396;-77
2023/08/26 22:30:08;;;;;;;20.40;15.25;;;17.20;99.90;;;;;;4888127;29;20334;-77
2023/08/26 22:32:34;;;;;;;20.73;14.75;;;17.10;99.90;;;;;;4942853;29;20110;-77
2023/08/26 22:34:59;;;;;;;20.85;15.02;;;17.10;99.90;;;;;;4929779;29;20042;-77
2023/08/26 22:37:25;;;;;;;22.77;14.80;;;17.10;99.90;;;;;;4946017;29;20059;-78
2023/08/26 22:39:51;;;;;;;23.00;16.10;;;17.10;99.90;;;;;;4945977;29;20085;-79
2023/08/26 22:42:17;;;;;;;28.35;17.45;;;17.10;99.90;;;;;;4929695;29;20081;-76
2023/08/26 22:44:43;;;;;;;20.88;15.00;;;17.10;99.90;;;;;;4946824;29;20024;-77
2023/08/26 22:47:08;;;;;;;18.42;12.75;;;17.10;99.90;;;;;;4945181;29;20034;-77
2023/08/26 22:49:37;;;;;;;17.42;12.75;;;17.10;99.90;;;;;;4944694;29;20043;-78
2023/08/26 22:52:03;;;;;;;17.23;11.57;;;17.10;99.90;;;;;;4947479;29;20035;-77
2023/08/26 22:54:29;;;;;;;15.77;12.05;;;17.10;99.90;;;;;;4964035;29;20202;-78
2023/08/26 22:56:55;;;;;;;16.00;12.05;;;17.10;99.90;;;;;;4963891;29;20054;-76
2023/08/26 22:59:21;;;;;;;18.48;11.65;;;17.10;99.90;;;;;;4964213;29;20046;-76
2023/08/26 23:01:47;;;;;;;17.83;13.02;;;17.10;99.90;;;;;;4965873;29;20055;-76
2023/08/26 23:04:13;;;;;;;20.63;13.85;;;17.10;99.90;;;;;;4960804;29;20054;-77
2023/08/26 23:06:40;;;;;;;20.83;13.88;;;17.00;99.90;;;;;;4960820;29;20059;-76
2023/08/26 23:09:06;;;;;;;21.77;14.55;;;17.10;99.90;;;;;;4975721;28;20050;-79
2023/08/26 23:11:44;;;;;;;18.02;13.10;;;17.00;99.90;;;;;;5121711;27;20113;-78
2023/08/26 23:14:11;;;;;;;16.65;12.30;;;17.00;99.90;;;;;;5119754;28;20355;-76
2023/08/26 23:16:37;;;;;;;16.77;12.07;;;16.90;99.90;;;;;;5121198;28;20024;-78
2023/08/26 23:19:06;;;;;;;16.90;12.10;;;16.90;99.90;;;;;;5119569;28;20080;-76
2023/08/26 23:21:32;;;;;;;17.15;11.73;;;16.90;99.90;;;;;;5102716;28;20209;-76
2023/08/26 23:23:58;;;;;;;16.95;11.27;;;16.90;99.90;;;;;;5119365;28;20039;-77
2023/08/26 23:26:24;;;;;;;17.73;11.60;;;16.80;99.90;;;;;;5120735;28;20087;-78
2023/08/26 23:28:50;;;;;;;16.45;12.75;;;16.80;99.90;;;;;;5121005;28;20190;-78
2023/08/26 23:31:16;;;;;;;16.05;12.18;;;16.90;99.90;;;;;;5118982;28;20356;-77
2023/08/26 23:33:42;;;;;;;17.52;10.57;;;16.90;99.90;;;;;;5119700;28;20042;-78
2023/08/26 23:36:08;;;;;;;14.52;10.02;;;16.90;99.90;;;;;;5119008;28;20034;-76
2023/08/26 23:38:33;;;;;;;12.25;9.25;;;16.90;99.90;;;;;;5119070;28;20043;-78
2023/08/26 23:41:00;;;;;;;14.75;8.95;;;16.90;99.90;;;;;;5119314;28;20042;-77
2023/08/26 23:43:27;;;;;;;12.23;8.38;;;16.90;99.90;;;;;;5118545;28;20039;-76
2023/08/26 23:45:53;;;;;;;9.52;7.78;;;16.80;99.90;;;;;;5101407;28;20051;-78
2023/08/26 23:48:19;;;;;;;10.68;7.97;;;16.90;99.90;;;;;;5100959;28;20093;-77
2023/08/26 23:50:45;;;;;;;12.13;8.40;;;16.90;99.90;;;;;;5097803;28;20048;-76
2023/08/26 23:53:11;;;;;;;9.80;7.57;;;16.90;99.90;;;;;;5097603;28;20062;-78
2023/08/26 23:55:37;;;;;;;12.30;7.72;;;17.00;99.90;;;;;;5080927;28;20032;-77
2023/08/26 23:58:03;;;;;;;15.38;8.02;;;17.00;99.90;;;;;;5097208;28;20051;-78
